createdAt,value
2019-03-22T00:01:21.364Z,42.70
2019-03-22T00:03:49.590Z,42.70
2019-03-22T00:06:17.757Z,42.40
2019-03-22T00:08:45.929Z,42.60
2019-03-22T00:11:14.133Z,42.20
2019-03-22T00:13:42.334Z,42.20
2019-03-22T00:16:10.493Z,42.20
2019-03-22T00:18:38.665Z,42.20
2019-03-22T00:21:07.901Z,42.20
2019-03-22T00:23:36.075Z,42.20
2019-03-22T00:26:04.308Z,42.20
2019-03-22T00:28:33.882Z,42.10
2019-03-22T00:31:02.073Z,41.90
2019-03-22T00:33:30.343Z,41.80
2019-03-22T00:35:58.712Z,41.40
2019-03-22T00:38:26.901Z,42.00
2019-03-22T00:40:55.081Z,41.80
2019-03-22T00:43:23.293Z,42.40
2019-03-22T00:45:51.704Z,43.30
2019-03-22T00:48:19.878Z,43.90
2019-03-22T00:50:48.028Z,43.60
2019-03-22T00:53:16.430Z,43.80
2019-03-22T00:55:44.587Z,43.50
2019-03-22T00:58:12.767Z,43.30
2019-03-22T01:00:42.084Z,43.50
2019-03-22T01:03:10.280Z,43.20
2019-03-22T01:05:38.496Z,43.40
2019-03-22T01:08:06.673Z,43.00
2019-03-22T01:10:35.118Z,42.40
2019-03-22T01:13:03.389Z,42.40
2019-03-22T01:15:32.598Z,42.50
2019-03-22T01:18:00.734Z,42.10
2019-03-22T01:20:28.931Z,42.60
2019-03-22T01:22:57.081Z,42.80
2019-03-22T01:25:25.225Z,43.60
2019-03-22T01:27:53.473Z,43.70
2019-03-22T01:30:21.648Z,44.70
2019-03-22T01:32:49.802Z,43.50
2019-03-22T01:35:17.978Z,43.50
2019-03-22T01:37:46.188Z,43.80
2019-03-22T01:40:15.169Z,43.90
2019-03-22T01:42:43.347Z,43.50
2019-03-22T01:45:12.601Z,44.60
2019-03-22T01:47:40.763Z,45.30
2019-03-22T01:50:10.132Z,45.50
2019-03-22T01:52:39.597Z,45.40
2019-03-22T01:55:07.869Z,45.20
2019-03-22T01:57:36.066Z,44.80
2019-03-22T02:00:05.284Z,44.70
2019-03-22T02:02:33.665Z,43.80
2019-03-22T02:05:02.149Z,44.30
2019-03-22T02:07:30.385Z,44.30
2019-03-22T02:09:58.538Z,44.00
2019-03-22T02:12:26.684Z,43.80
2019-03-22T02:14:54.893Z,44.60
2019-03-22T02:17:23.055Z,44.70
2019-03-22T02:19:51.215Z,45.40
2019-03-22T02:22:19.429Z,45.40
2019-03-22T02:24:48.609Z,45.20
2019-03-22T02:27:16.853Z,46.50
2019-03-22T02:29:45.032Z,46.80
2019-03-22T02:32:13.351Z,47.00
2019-03-22T02:34:41.525Z,46.40
2019-03-22T02:37:09.699Z,47.10
2019-03-22T02:39:38.006Z,46.00
2019-03-22T02:42:06.310Z,47.70
2019-03-22T02:44:34.641Z,48.10
2019-03-22T02:47:03.562Z,48.10
2019-03-22T02:49:31.789Z,48.20
2019-03-22T02:52:00.070Z,48.20
2019-03-22T02:54:28.461Z,48.20
2019-03-22T02:56:56.657Z,48.60
2019-03-22T02:59:24.809Z,48.10
2019-03-22T03:01:53.022Z,48.60
2019-03-22T03:04:21.291Z,48.00
2019-03-22T03:06:49.446Z,47.50
2019-03-22T03:09:17.620Z,47.10
2019-03-22T03:11:45.973Z,47.00
2019-03-22T03:14:14.247Z,47.20
2019-03-22T03:16:42.413Z,47.30
2019-03-22T03:19:10.593Z,46.70
2019-03-22T03:21:38.770Z,46.60
2019-03-22T03:24:07.221Z,46.90
2019-03-22T03:26:35.477Z,48.10
2019-03-22T03:29:03.684Z,47.10
2019-03-22T03:31:31.870Z,47.60
2019-03-22T03:34:01.181Z,46.90
2019-03-22T03:36:29.441Z,47.20
2019-03-22T03:38:57.630Z,47.60
2019-03-22T03:41:25.776Z,48.30
2019-03-22T03:43:53.971Z,48.90
2019-03-22T03:46:22.166Z,49.30
2019-03-22T03:48:50.370Z,50.00
2019-03-22T03:51:18.534Z,48.60
2019-03-22T03:53:46.847Z,48.80
2019-03-22T03:56:14.998Z,48.50
2019-03-22T03:58:52.130Z,48.80
2019-03-22T04:01:13.355Z,48.80
2019-03-22T04:03:41.509Z,49.70
2019-03-22T04:06:09.643Z,49.40
2019-03-22T04:08:37.828Z,49.70
2019-03-22T04:11:06.105Z,50.20
2019-03-22T04:13:34.293Z,50.10
2019-03-22T04:16:02.460Z,49.80
2019-03-22T04:18:30.684Z,49.80
2019-03-22T04:20:58.877Z,49.90
2019-03-22T04:23:27.126Z,49.90
2019-03-22T04:25:55.374Z,49.60
2019-03-22T04:28:23.573Z,49.70
2019-03-22T04:30:51.778Z,49.70
2019-03-22T04:33:21.070Z,50.40
2019-03-22T04:35:49.276Z,50.30
2019-03-22T04:38:17.421Z,49.70
2019-03-22T04:40:45.592Z,49.70
2019-03-22T04:43:13.737Z,49.00
2019-03-22T04:45:43.396Z,49.70
2019-03-22T04:48:23.552Z,49.60
2019-03-22T04:50:53.949Z,49.60
2019-03-22T04:53:25.919Z,51.60
2019-03-22T04:55:57.593Z,51.30
2019-03-22T04:58:28.706Z,51.10
2019-03-22T05:00:58.402Z,50.90
2019-03-22T05:03:26.961Z,50.90
2019-03-22T05:05:58.348Z,51.00
2019-03-22T05:08:29.074Z,51.50
2019-03-22T05:10:59.918Z,50.70
2019-03-22T05:13:28.992Z,50.50
2019-03-22T05:15:57.597Z,49.90
2019-03-22T05:18:28.000Z,49.90
2019-03-22T05:20:56.787Z,49.70
2019-03-22T05:23:25.997Z,49.20
2019-03-22T05:25:57.782Z,50.20
2019-03-22T05:28:28.040Z,51.10
2019-03-22T05:31:30.241Z,51.80
2019-03-22T05:33:58.523Z,52.40
2019-03-22T05:36:27.763Z,51.80
2019-03-22T05:38:55.958Z,51.50
2019-03-22T05:41:24.168Z,51.30
2019-03-22T05:43:52.412Z,51.10
2019-03-22T05:46:20.577Z,51.30
2019-03-22T05:48:48.792Z,50.90
2019-03-22T05:51:17.044Z,50.40
2019-03-22T05:53:45.216Z,51.40
2019-03-22T05:56:13.422Z,53.00
2019-03-22T05:58:41.606Z,52.40
2019-03-22T06:01:09.801Z,52.60
2019-03-22T06:03:38.032Z,52.30
2019-03-22T06:06:06.282Z,52.80
2019-03-22T06:08:35.554Z,53.40
2019-03-22T06:11:03.775Z,53.30
2019-03-22T06:13:31.965Z,53.40
2019-03-22T06:16:00.141Z,53.50
2019-03-22T06:18:28.364Z,54.10
2019-03-22T06:20:56.690Z,53.40
2019-03-22T06:23:24.892Z,53.60
2019-03-22T06:25:53.076Z,53.80
2019-03-22T06:28:21.374Z,54.00
2019-03-22T06:30:49.578Z,53.00
2019-03-22T06:33:17.748Z,52.60
2019-03-22T06:35:45.945Z,51.50
2019-03-22T06:38:14.136Z,50.80
2019-03-22T06:40:42.437Z,50.20
2019-03-22T06:43:10.807Z,49.70
2019-03-22T06:45:42.329Z,49.40
2019-03-22T06:48:10.496Z,48.70
2019-03-22T06:50:38.793Z,48.00
2019-03-22T06:53:07.003Z,47.90
2019-03-22T06:55:35.365Z,47.80
2019-03-22T06:58:03.538Z,50.70
2019-03-22T07:00:31.783Z,49.90
2019-03-22T07:02:59.954Z,50.10
2019-03-22T07:05:28.818Z,50.10
2019-03-22T07:07:57.035Z,50.20
2019-03-22T07:10:25.228Z,49.70
2019-03-22T07:12:53.506Z,51.50
2019-03-22T07:15:21.672Z,51.30
2019-03-22T07:17:49.935Z,49.60
2019-03-22T07:20:18.241Z,51.00
2019-03-22T07:22:46.435Z,50.00
2019-03-22T07:25:14.769Z,49.00
2019-03-22T07:27:43.158Z,45.50
2019-03-22T07:30:18.458Z,43.30
2019-03-22T07:32:41.710Z,42.60
2019-03-22T07:35:09.937Z,39.00
2019-03-22T07:37:38.168Z,39.30
2019-03-22T07:40:06.565Z,38.00
2019-03-22T07:42:34.859Z,37.60
2019-03-22T07:45:03.401Z,36.60
2019-03-22T07:47:31.637Z,37.70
2019-03-22T07:49:59.818Z,37.30
2019-03-22T07:52:28.251Z,37.50
2019-03-22T07:54:56.454Z,37.20
2019-03-22T07:57:25.120Z,36.80
2019-03-22T07:59:53.295Z,36.80
2019-03-22T08:02:21.744Z,38.20
2019-03-22T08:04:49.974Z,36.40
2019-03-22T08:07:18.199Z,35.20
2019-03-22T08:09:46.513Z,35.50
2019-03-22T08:12:14.854Z,35.50
2019-03-22T08:14:43.546Z,35.60
2019-03-22T08:17:11.734Z,35.60
2019-03-22T08:19:40.151Z,35.60
2019-03-22T08:22:08.450Z,35.70
2019-03-22T08:24:36.635Z,36.00
2019-03-22T08:27:04.875Z,35.10
2019-03-22T08:29:33.209Z,35.80
2019-03-22T08:32:01.516Z,36.00
2019-03-22T08:34:29.746Z,35.10
2019-03-22T08:36:57.948Z,34.50
2019-03-22T08:39:26.249Z,33.60
2019-03-22T08:41:54.509Z,33.40
2019-03-22T08:44:22.769Z,32.60
2019-03-22T08:46:52.223Z,32.60
2019-03-22T08:49:20.534Z,33.80
2019-03-22T08:51:49.773Z,32.30
2019-03-22T08:54:18.210Z,33.70
2019-03-22T08:56:46.429Z,33.70
2019-03-22T08:59:14.693Z,32.20
2019-03-22T09:01:43.018Z,33.00
2019-03-22T09:04:11.293Z,30.70
2019-03-22T09:06:39.509Z,30.40
2019-03-22T09:09:08.958Z,31.30
2019-03-22T09:11:37.284Z,31.40
2019-03-22T09:14:05.608Z,30.50
2019-03-22T09:16:33.880Z,29.50
2019-03-22T09:19:02.141Z,30.70
2019-03-22T09:21:31.466Z,31.60
2019-03-22T09:23:59.669Z,31.10
2019-03-22T09:26:27.840Z,30.80
2019-03-22T09:28:56.063Z,30.80
2019-03-22T09:31:24.379Z,30.00
2019-03-22T09:33:52.565Z,29.70
2019-03-22T09:36:20.786Z,30.30
2019-03-22T09:38:48.992Z,30.80
2019-03-22T09:41:17.300Z,31.90
2019-03-22T09:43:45.601Z,30.10
2019-03-22T09:46:13.867Z,31.20
2019-03-22T09:48:42.183Z,30.60
2019-03-22T09:51:10.472Z,32.20
2019-03-22T09:53:38.712Z,30.90
2019-03-22T09:56:07.018Z,30.00
2019-03-22T09:58:35.483Z,30.40
2019-03-22T10:01:03.846Z,29.00
2019-03-22T10:03:32.102Z,29.90
2019-03-22T10:06:00.406Z,29.40
2019-03-22T10:08:28.719Z,29.90
2019-03-22T10:10:57.050Z,30.30
2019-03-22T10:13:25.282Z,29.80
2019-03-22T10:15:53.512Z,30.80
2019-03-22T10:18:21.862Z,29.60
2019-03-22T10:20:50.154Z,29.40
2019-03-22T10:23:18.378Z,27.60
2019-03-22T10:25:46.724Z,28.60
2019-03-22T10:28:15.045Z,28.20
2019-03-22T10:30:43.298Z,28.20
2019-03-22T10:33:22.061Z,28.80
2019-03-22T10:35:41.705Z,29.30
2019-03-22T10:38:16.305Z,29.80
2019-03-22T10:40:40.223Z,29.90
2019-03-22T10:43:08.431Z,28.80
2019-03-22T10:45:36.718Z,29.10
2019-03-22T10:48:05.087Z,28.80
2019-03-22T10:50:33.385Z,28.90
2019-03-22T10:53:01.637Z,28.00
2019-03-22T10:55:30.777Z,29.00
2019-03-22T10:57:59.210Z,28.10
2019-03-22T11:00:27.407Z,28.20
2019-03-22T11:02:55.634Z,27.80
2019-03-22T11:05:23.828Z,28.40
2019-03-22T11:07:52.051Z,27.30
2019-03-22T11:10:20.245Z,27.40
2019-03-22T11:12:48.461Z,28.30
2019-03-22T11:15:16.657Z,27.90
2019-03-22T11:17:44.912Z,28.40
2019-03-22T11:20:14.003Z,27.90
2019-03-22T11:22:42.273Z,28.00
2019-03-22T11:25:10.581Z,28.60
2019-03-22T11:27:38.837Z,26.90
2019-03-22T11:30:09.117Z,26.60
2019-03-22T11:32:37.269Z,26.60
2019-03-22T11:35:06.013Z,27.00
2019-03-22T11:37:34.237Z,26.50
2019-03-22T11:40:02.756Z,27.20
2019-03-22T11:42:31.048Z,26.40
2019-03-22T11:44:59.395Z,27.90
2019-03-22T11:47:27.552Z,25.90
2019-03-22T11:49:55.770Z,27.50
2019-03-22T11:52:24.000Z,26.20
2019-03-22T11:54:52.149Z,26.40
2019-03-22T11:57:20.537Z,25.50
2019-03-22T11:59:48.758Z,24.40
2019-03-22T12:02:22.296Z,24.60
2019-03-22T12:04:47.068Z,25.70
2019-03-22T12:07:15.283Z,25.80
2019-03-22T12:09:43.613Z,24.90
2019-03-22T12:12:11.875Z,25.70
2019-03-22T12:14:40.941Z,25.70
2019-03-22T12:17:09.224Z,24.80
2019-03-22T12:19:37.495Z,24.70
2019-03-22T12:22:05.681Z,25.50
2019-03-22T12:24:33.861Z,24.10
2019-03-22T12:27:02.086Z,24.20
2019-03-22T12:29:30.298Z,24.40
2019-03-22T12:31:58.496Z,25.30
2019-03-22T12:34:26.727Z,24.70
2019-03-22T12:36:54.868Z,24.30
2019-03-22T12:39:24.140Z,25.30
2019-03-22T12:41:52.450Z,24.60
2019-03-22T12:44:20.666Z,24.10
2019-03-22T12:46:49.293Z,24.50
2019-03-22T12:49:18.628Z,24.40
2019-03-22T12:51:47.189Z,23.00
2019-03-22T12:54:15.429Z,23.90
2019-03-22T12:56:43.724Z,23.80
2019-03-22T12:59:11.944Z,24.90
2019-03-22T13:01:40.182Z,23.00
2019-03-22T13:04:08.408Z,24.10
2019-03-22T13:06:36.568Z,23.00
2019-03-22T13:09:07.502Z,23.10
2019-03-22T13:11:35.736Z,23.40
2019-03-22T13:14:03.949Z,24.60
2019-03-22T13:16:32.165Z,22.40
2019-03-22T13:19:00.629Z,22.90
2019-03-22T13:21:28.822Z,24.60
2019-03-22T13:23:57.036Z,23.00
2019-03-22T13:26:25.234Z,24.10
2019-03-22T13:28:53.462Z,22.00
2019-03-22T13:31:21.734Z,23.60
2019-03-22T13:33:49.922Z,22.80
2019-03-22T13:36:18.159Z,22.40
2019-03-22T13:38:46.369Z,21.00
2019-03-22T13:41:14.589Z,22.80
2019-03-22T13:43:43.093Z,22.80
2019-03-22T13:46:11.264Z,21.70
2019-03-22T13:48:39.421Z,22.30
2019-03-22T13:51:07.668Z,23.30
2019-03-22T13:53:36.000Z,22.70
2019-03-22T13:56:04.325Z,24.70
2019-03-22T13:58:32.572Z,22.90
2019-03-22T14:01:00.777Z,22.70
2019-03-22T14:03:28.967Z,23.60
2019-03-22T14:05:57.182Z,22.20
2019-03-22T14:08:27.001Z,22.90
2019-03-22T14:10:55.518Z,23.30
2019-03-22T14:13:23.710Z,21.50
2019-03-22T14:15:51.950Z,22.30
2019-03-22T14:18:20.196Z,22.30
2019-03-22T14:20:49.417Z,23.30
2019-03-22T14:23:17.646Z,24.10
2019-03-22T14:25:45.892Z,21.90
2019-03-22T14:28:14.083Z,22.30
2019-03-22T14:30:42.486Z,22.90
2019-03-22T14:33:13.655Z,22.10
2019-03-22T14:35:40.761Z,23.20
2019-03-22T14:38:08.933Z,22.50
2019-03-22T14:40:37.125Z,23.40
2019-03-22T14:43:05.301Z,22.10
2019-03-22T14:45:33.595Z,22.60
2019-03-22T14:48:01.814Z,21.80
2019-03-22T14:50:30.063Z,21.70
2019-03-22T14:52:58.261Z,21.60
2019-03-22T14:55:26.476Z,20.50
2019-03-22T14:57:54.774Z,21.40
2019-03-22T15:00:22.965Z,21.10
2019-03-22T15:02:51.142Z,22.70
2019-03-22T15:05:19.336Z,21.30
2019-03-22T15:07:47.572Z,22.30
2019-03-22T15:10:15.897Z,21.20
2019-03-22T15:12:44.139Z,21.60
2019-03-22T15:15:46.834Z,21.60
2019-03-22T15:18:31.905Z,22.20
2019-03-22T15:21:17.810Z,21.50
2019-03-22T15:24:08.347Z,21.50
2019-03-22T15:26:48.443Z,22.30
2019-03-22T15:29:38.927Z,21.90
2019-03-22T15:32:41.747Z,21.80
2019-03-22T15:35:32.610Z,22.10
2019-03-22T15:38:18.954Z,21.80
2019-03-22T15:40:47.137Z,21.60
2019-03-22T15:43:15.333Z,21.80
2019-03-22T15:45:43.609Z,21.30
2019-03-22T15:48:11.902Z,22.40
2019-03-22T15:50:40.114Z,21.80
2019-03-22T15:53:08.296Z,20.20
2019-03-22T15:55:36.508Z,22.30
2019-03-22T15:58:04.719Z,21.80
2019-03-22T16:00:33.018Z,22.30
2019-03-22T16:03:01.214Z,23.30
2019-03-22T16:05:29.440Z,23.30
2019-03-22T16:07:57.721Z,24.20
2019-03-22T16:10:25.932Z,23.90
2019-03-22T16:12:54.181Z,23.70
2019-03-22T16:15:22.416Z,24.30
2019-03-22T16:17:50.630Z,24.40
2019-03-22T16:20:18.824Z,24.80
2019-03-22T16:22:47.011Z,23.90
2019-03-22T16:25:15.267Z,24.30
2019-03-22T16:27:43.529Z,24.00
2019-03-22T16:30:12.761Z,24.70
2019-03-22T16:32:40.937Z,24.10
2019-03-22T16:35:09.337Z,24.70
2019-03-22T16:37:37.539Z,24.70
2019-03-22T16:40:06.566Z,25.40
2019-03-22T16:42:34.764Z,25.10
2019-03-22T16:45:03.442Z,25.20
2019-03-22T16:47:31.899Z,25.40
2019-03-22T16:50:00.089Z,25.00
2019-03-22T16:52:28.600Z,25.20
2019-03-22T16:54:56.924Z,26.10
2019-03-22T16:57:25.155Z,25.90
2019-03-22T16:59:53.512Z,26.50
2019-03-22T17:02:22.127Z,25.90
2019-03-22T17:04:50.320Z,26.40
2019-03-22T17:07:18.568Z,26.50
2019-03-22T17:09:46.780Z,26.70
2019-03-22T17:12:14.969Z,27.40
2019-03-22T17:14:43.429Z,29.20
2019-03-22T17:17:11.721Z,29.20
2019-03-22T17:19:39.991Z,30.20
2019-03-22T17:22:08.201Z,30.00
2019-03-22T17:24:36.428Z,28.90
2019-03-22T17:27:04.696Z,29.70
2019-03-22T17:29:32.923Z,29.80
2019-03-22T17:32:01.223Z,31.10
2019-03-22T17:34:29.529Z,32.30
2019-03-22T17:36:57.751Z,33.00
2019-03-22T17:39:25.949Z,34.10
2019-03-22T17:41:54.144Z,34.50
2019-03-22T17:44:22.429Z,34.30
2019-03-22T17:46:50.637Z,34.60
2019-03-22T17:49:18.830Z,35.00
2019-03-22T17:51:47.008Z,34.50
2019-03-22T17:54:15.253Z,34.20
2019-03-22T17:56:43.509Z,34.50
2019-03-22T17:59:11.797Z,33.60
2019-03-22T18:01:40.464Z,33.70
2019-03-22T18:04:08.697Z,33.60
2019-03-22T18:06:36.949Z,33.80
2019-03-22T18:09:05.924Z,34.00
2019-03-22T18:11:34.262Z,34.60
2019-03-22T18:14:02.550Z,35.60
2019-03-22T18:16:30.792Z,36.00
2019-03-22T18:18:58.993Z,36.40
2019-03-22T18:21:27.211Z,36.40
2019-03-22T18:23:55.548Z,35.80
2019-03-22T18:26:23.812Z,35.70
2019-03-22T18:28:52.046Z,35.50
2019-03-22T18:31:20.242Z,35.20
2019-03-22T18:33:49.710Z,35.10
2019-03-22T18:36:17.886Z,35.60
2019-03-22T18:38:46.266Z,35.50
2019-03-22T18:41:14.443Z,35.70
2019-03-22T18:43:42.803Z,35.90
2019-03-22T18:46:11.036Z,36.10
2019-03-22T18:48:39.241Z,35.10
2019-03-22T18:51:07.445Z,35.10
2019-03-22T18:53:35.621Z,34.70
2019-03-22T18:56:03.878Z,35.20
2019-03-22T18:58:32.073Z,35.30
2019-03-22T19:01:00.289Z,35.80
2019-03-22T19:03:28.684Z,36.50
2019-03-22T19:05:57.092Z,36.00
2019-03-22T19:08:25.251Z,36.00
2019-03-22T19:10:53.554Z,36.20
2019-03-22T19:13:30.410Z,36.80
2019-03-22T19:15:51.856Z,36.80
2019-03-22T19:18:20.036Z,36.80
2019-03-22T19:20:48.276Z,36.20
2019-03-22T19:23:16.458Z,36.00
2019-03-22T19:25:44.721Z,35.90
2019-03-22T19:28:12.909Z,36.60
2019-03-22T19:30:41.127Z,37.10
2019-03-22T19:33:09.613Z,36.60
2019-03-22T19:35:37.793Z,36.60
2019-03-22T19:38:06.002Z,37.20
2019-03-22T19:40:34.221Z,36.90
2019-03-22T19:43:02.494Z,37.40
2019-03-22T19:45:30.891Z,37.80
2019-03-22T19:47:59.098Z,38.00
2019-03-22T19:50:27.298Z,38.50
2019-03-22T19:52:55.604Z,39.00
2019-03-22T19:55:24.861Z,39.40
2019-03-22T19:57:53.154Z,39.40
2019-03-22T20:00:21.390Z,39.60
2019-03-22T20:02:49.780Z,39.50
2019-03-22T20:05:28.622Z,39.40
2019-03-22T20:07:56.980Z,39.30
2019-03-22T20:10:25.282Z,39.20
2019-03-22T20:12:53.496Z,39.10
2019-03-22T20:15:21.693Z,39.40
2019-03-22T20:17:50.034Z,39.50
2019-03-22T20:20:18.350Z,38.90
2019-03-22T20:22:46.600Z,38.70
2019-03-22T20:25:14.831Z,38.70
2019-03-22T20:27:43.091Z,38.80
2019-03-22T20:30:11.441Z,39.20
2019-03-22T20:32:39.608Z,39.90
2019-03-22T20:35:16.369Z,41.10
2019-03-22T20:37:38.748Z,41.10
2019-03-22T20:40:07.049Z,41.80
2019-03-22T20:42:35.334Z,42.20
2019-03-22T20:45:04.130Z,42.10
2019-03-22T20:47:32.378Z,41.90
2019-03-22T20:50:01.293Z,42.30
2019-03-22T20:52:29.557Z,42.20
2019-03-22T20:54:57.780Z,41.60
2019-03-22T20:57:25.992Z,41.60
2019-03-22T20:59:55.285Z,42.00
2019-03-22T21:02:23.521Z,42.00
2019-03-22T21:04:51.697Z,42.10
2019-03-22T21:07:19.972Z,42.00
2019-03-22T21:09:48.127Z,41.80
2019-03-22T21:12:16.303Z,41.80
2019-03-22T21:14:44.561Z,42.00
2019-03-22T21:17:12.760Z,42.30
2019-03-22T21:19:40.933Z,42.30
2019-03-22T21:22:09.215Z,42.20
2019-03-22T21:24:37.379Z,42.30
2019-03-22T21:27:15.168Z,42.00
2019-03-22T21:29:43.769Z,41.80
2019-03-22T21:32:05.966Z,42.10
2019-03-22T21:34:34.154Z,42.40
2019-03-22T21:37:03.332Z,42.50
2019-03-22T21:39:31.546Z,42.90
2019-03-22T21:41:59.774Z,42.80
2019-03-22T21:44:28.062Z,42.80
2019-03-22T21:46:56.225Z,42.40
2019-03-22T21:49:24.449Z,42.50
2019-03-22T21:51:52.612Z,42.60
2019-03-22T21:54:20.770Z,42.60
2019-03-22T21:56:49.390Z,42.50
2019-03-22T21:59:17.620Z,42.70
2019-03-22T22:01:45.835Z,42.90
2019-03-22T22:04:14.048Z,43.10
2019-03-22T22:06:42.260Z,43.60
2019-03-22T22:09:10.379Z,43.80
2019-03-22T22:11:38.556Z,44.20
2019-03-22T22:14:06.993Z,44.80
2019-03-22T22:16:35.157Z,44.60
2019-03-22T22:19:03.342Z,44.40
2019-03-22T22:21:31.601Z,44.60
2019-03-22T22:23:59.798Z,44.00
2019-03-22T22:26:28.965Z,43.30
2019-03-22T22:28:57.174Z,43.30
2019-03-22T22:31:25.441Z,43.70
2019-03-22T22:33:53.617Z,43.50
2019-03-22T22:36:21.808Z,43.50
2019-03-22T22:38:49.997Z,43.90
2019-03-22T22:41:18.197Z,43.70
2019-03-22T22:43:46.503Z,43.90
2019-03-22T22:46:14.692Z,44.40
2019-03-22T22:48:42.961Z,44.60
2019-03-22T22:51:11.291Z,44.90
2019-03-22T22:53:39.493Z,44.60
2019-03-22T22:56:07.665Z,45.50
2019-03-22T22:58:35.872Z,45.20
2019-03-22T23:01:04.121Z,45.00
2019-03-22T23:03:32.464Z,44.70
2019-03-22T23:06:09.118Z,44.70
2019-03-22T23:08:30.821Z,44.00
2019-03-22T23:10:59.082Z,43.70
2019-03-22T23:13:28.257Z,44.00
2019-03-22T23:15:56.513Z,43.20
2019-03-22T23:18:24.713Z,45.80
2019-03-22T23:20:52.896Z,44.90
2019-03-22T23:23:21.177Z,46.20
2019-03-22T23:25:49.469Z,46.50
2019-03-22T23:28:17.670Z,46.80
2019-03-22T23:30:45.902Z,46.30
2019-03-22T23:33:14.153Z,45.90
2019-03-22T23:35:43.380Z,45.80
2019-03-22T23:38:11.560Z,46.30
2019-03-22T23:40:40.126Z,45.80
2019-03-22T23:43:08.457Z,46.30
2019-03-22T23:45:36.695Z,46.40
2019-03-22T23:48:05.001Z,46.60
2019-03-22T23:50:33.204Z,46.50
2019-03-22T23:53:01.612Z,46.60
2019-03-22T23:55:29.845Z,47.50
2019-03-22T23:57:58.021Z,48.50
